createdAt,value
2023-05-22T12:55:11.538Z,10.57
2023-05-22T13:00:16.900Z,11.23
2023-05-22T13:05:21.361Z,12.60
2023-05-22T13:10:26.897Z,10.90
2023-05-22T13:15:32.566Z,10.82
2023-05-22T13:20:38.240Z,12.77
2023-05-22T13:25:44.000Z,13.17
2023-05-22T13:30:48.110Z,11.97
2023-05-22T13:35:52.223Z,12.82
2023-05-22T13:41:00.668Z,13.95
2023-05-22T13:46:04.923Z,13.70
2023-05-22T13:51:09.066Z,14.38
2023-05-22T13:56:14.757Z,14.05
2023-05-22T14:01:18.902Z,14.87
2023-05-22T14:06:23.553Z,14.32
2023-05-22T14:11:29.049Z,13.45
2023-05-22T14:16:35.204Z,17.40
2023-05-22T14:21:39.360Z,16.70
2023-05-22T14:26:45.350Z,16.73
2023-05-22T14:31:51.984Z,16.75
2023-05-22T14:36:58.100Z,16.05
2023-05-22T14:42:03.624Z,16.80
2023-05-22T14:47:08.042Z,15.02
2023-05-22T14:52:12.172Z,15.38
2023-05-22T14:57:17.783Z,15.77
2023-05-22T15:02:24.816Z,12.75
2023-05-22T15:07:43.105Z,11.50
2023-05-22T15:12:50.617Z,12.10
2023-05-22T15:17:55.628Z,10.45
2023-05-22T15:23:00.886Z,10.90
2023-05-22T15:28:07.282Z,11.98
2023-05-22T15:33:11.719Z,10.57
2023-05-22T15:38:16.620Z,9.15
2023-05-22T15:43:23.415Z,11.48
2023-05-22T15:48:32.421Z,9.30
2023-05-22T15:53:36.595Z,9.27
2023-05-22T15:58:42.196Z,10.95
2023-05-22T16:03:46.570Z,12.10
2023-05-22T16:08:50.827Z,9.90
2023-05-22T16:13:56.244Z,9.85
2023-05-22T16:19:00.411Z,9.65
2023-05-22T16:24:06.485Z,9.45
2023-05-22T16:29:11.912Z,8.33
2023-05-22T16:34:16.267Z,7.40
2023-05-22T16:39:20.374Z,7.38
2023-05-22T16:44:26.013Z,7.05
2023-05-22T16:49:30.264Z,7.75
2023-05-22T16:54:34.549Z,6.03
2023-05-22T16:59:40.007Z,6.60
2023-05-22T17:04:44.533Z,5.85
2023-05-22T17:09:48.659Z,5.32
2023-05-22T17:14:54.211Z,4.60
2023-05-22T17:19:58.590Z,3.70
2023-05-22T17:25:02.752Z,3.75
2023-05-22T17:30:09.812Z,3.28
2023-05-22T17:35:13.912Z,3.70
2023-05-22T17:40:18.768Z,2.75
2023-05-22T17:45:24.291Z,2.60
2023-05-22T17:50:28.770Z,2.83
2023-05-22T17:55:32.906Z,2.88
2023-05-22T18:00:38.798Z,2.50
2023-05-22T18:05:43.529Z,2.60
2023-05-22T18:10:47.699Z,2.90
2023-05-22T18:15:53.310Z,2.97
2023-05-22T18:20:57.582Z,2.75
2023-05-22T18:26:01.694Z,2.67
2023-05-22T18:31:08.155Z,2.22
2023-05-22T18:36:12.342Z,3.00
2023-05-22T18:41:16.562Z,3.30
2023-05-22T18:46:22.182Z,3.55
2023-05-22T18:51:26.280Z,3.45
2023-05-22T18:56:30.449Z,3.25
2023-05-22T19:01:36.144Z,3.72
2023-05-22T19:06:42.195Z,3.77
2023-05-22T19:11:46.245Z,4.20
2023-05-22T19:16:51.817Z,3.33
2023-05-22T19:21:59.022Z,3.67
2023-05-22T19:27:03.081Z,4.60
2023-05-22T19:32:08.794Z,4.47
2023-05-22T19:37:13.102Z,4.70
2023-05-22T19:42:17.233Z,4.30
2023-05-22T19:47:22.735Z,5.55
2023-05-22T19:52:27.541Z,5.22
2023-05-22T19:57:31.647Z,5.03
2023-05-22T20:02:37.180Z,5.35
2023-05-22T20:07:43.332Z,6.32
2023-05-22T20:12:47.752Z,5.57
2023-05-22T20:17:54.588Z,5.25
2023-05-22T20:22:59.491Z,6.22
2023-05-22T20:28:04.898Z,5.57
2023-05-22T20:33:11.894Z,6.20
2023-05-22T20:38:16.190Z,6.20
2023-05-22T20:43:20.381Z,6.00
2023-05-22T20:48:25.891Z,6.93
2023-05-22T20:53:29.896Z,6.35
2023-05-22T20:58:34.181Z,6.60
2023-05-22T21:03:39.603Z,6.35
2023-05-22T21:08:43.790Z,7.22
2023-05-22T21:13:47.976Z,6.97
2023-05-22T21:18:53.630Z,6.70
2023-05-22T21:23:57.872Z,7.15
2023-05-22T21:29:03.250Z,7.57
2023-05-22T21:34:09.785Z,8.07
2023-05-22T21:39:17.162Z,10.27
2023-05-22T21:44:21.205Z,13.40
2023-05-22T21:49:26.614Z,14.82
2023-05-22T21:54:30.828Z,14.77
2023-05-22T21:59:35.045Z,15.68
2023-05-22T22:04:40.666Z,14.52
2023-05-22T22:09:44.875Z,13.63
2023-05-22T22:14:48.985Z,12.93
2023-05-22T22:19:56.942Z,12.77
2023-05-22T22:25:01.365Z,12.55
2023-05-22T22:30:06.756Z,11.70
2023-05-22T22:35:12.329Z,12.18
2023-05-22T22:40:16.490Z,12.75
2023-05-22T22:45:20.765Z,12.55
2023-05-22T22:50:26.314Z,13.77
2023-05-22T22:55:30.446Z,12.35
2023-05-22T23:00:34.727Z,12.82
2023-05-22T23:05:40.646Z,11.30
2023-05-22T23:10:44.928Z,11.30
2023-05-22T23:15:49.181Z,11.77
2023-05-22T23:20:54.798Z,11.70
2023-05-22T23:25:59.229Z,10.98
2023-05-22T23:31:03.825Z,10.68
2023-05-22T23:36:09.467Z,9.80
2023-05-22T23:41:13.665Z,9.88
2023-05-22T23:46:18.062Z,9.63
2023-05-22T23:51:23.526Z,10.73
2023-05-22T23:56:27.675Z,10.82
